Time,TemperatureF,DewpointF,PressureIn,WindDirection,WindDirectionDegrees,WindSpeedMPH,WindSpeedGustMPH,Humidity,HourlyPrecipIn,Conditions,Clouds,dailyrainin,SoftwareType,DateUTC
2013-05-04 07:41:00,67.9,67.3,29.73,NE,47,0.0,5.0,98,0.00,,,0.00,Wunderground v.1.15,2013-05-04 11:41:00,
2013-05-04 07:46:00,68.3,67.7,29.73,NE,47,0.0,5.0,98,0.00,,,0.00,Wunderground v.1.15,2013-05-04 11:46:00,
2013-05-04 07:49:00,68.4,67.5,29.73,NE,47,0.0,5.0,97,0.00,,,0.00,Wunderground v.1.15,2013-05-04 11:49:00,
2013-05-04 07:50:00,68.4,67.5,29.73,NE,47,0.0,5.0,97,0.00,,,0.00,Wunderground v.1.15,2013-05-04 11:50:00,
2013-05-04 07:55:00,68.5,67.6,29.74,NE,47,0.0,0.0,97,0.00,,,0.00,Wunderground v.1.15,2013-05-04 11:55:00,
2013-05-04 08:00:00,68.4,67.2,29.74,North,4,0.0,3.0,96,0.00,,,0.00,Wunderground v.1.15,2013-05-04 12:00:00,
2013-05-04 08:05:00,68.6,67.1,29.74,NE,53,0.0,1.0,95,0.00,,,0.00,Wunderground v.1.15,2013-05-04 12:05:00,
2013-05-04 08:10:00,68.9,67.1,29.74,NE,53,0.0,1.0,94,0.00,,,0.00,Wunderground v.1.15,2013-05-04 12:10:00,
2013-05-04 08:15:00,69.4,67.6,29.74,NE,53,0.0,0.0,94,0.00,,,0.00,Wunderground v.1.15,2013-05-04 12:15:00,
2013-05-04 08:20:00,69.7,67.9,29.74,NE,53,0.0,0.0,94,0.00,,,0.00,Wunderground v.1.15,2013-05-04 12:20:00,
2013-05-04 08:25:00,70.0,67.9,29.74,NE,53,0.0,1.0,93,0.00,,,0.00,Wunderground v.1.15,2013-05-04 12:25:00,
2013-05-04 08:30:00,70.3,68.2,29.74,NE,53,0.0,1.0,93,0.00,,,0.00,Wunderground v.1.15,2013-05-04 12:30:00,
2013-05-04 08:35:00,70.6,68.5,29.74,NE,53,0.0,0.0,93,0.00,,,0.00,Wunderground v.1.15,2013-05-04 12:35:00,
2013-05-04 08:40:00,70.6,67.8,29.75,NE,53,0.0,1.0,91,0.00,,,0.00,Wunderground v.1.15,2013-05-04 12:40:00,
2013-05-04 08:45:00,70.7,67.9,29.74,NE,53,0.0,1.0,91,0.00,,,0.00,Wunderground v.1.15,2013-05-04 12:45:00,
2013-05-04 08:50:00,70.9,67.8,29.75,ENE,62,1.0,2.0,90,0.00,,,0.00,Wunderground v.1.15,2013-05-04 12:50:00,
2013-05-04 08:55:00,71.2,68.4,29.75,ENE,61,0.0,1.0,91,0.00,,,0.00,Wunderground v.1.15,2013-05-04 12:55:00,
2013-05-04 09:00:00,71.8,68.7,29.74,NNW,347,0.0,1.0,90,0.00,,,0.00,Wunderground v.1.15,2013-05-04 13:00:00,
2013-05-04 09:04:00,72.1,68.7,29.74,NNE,33,2.0,2.0,89,0.00,,,0.00,Wunderground v.1.15,2013-05-04 13:04:00,
2013-05-04 09:09:00,72.5,69.4,29.74,ESE,104,0.0,2.0,90,0.00,,,0.00,Wunderground v.1.15,2013-05-04 13:09:00,
2013-05-04 09:14:00,73.1,69.3,29.75,SE,131,0.0,1.0,88,0.00,,,0.00,Wunderground v.1.15,2013-05-04 13:14:00,
2013-05-04 09:19:00,73.8,69.3,29.75,SE,138,0.0,2.0,86,0.00,,,0.00,Wunderground v.1.15,2013-05-04 13:19:00,
2013-05-04 09:24:00,74.3,69.8,29.75,South,174,0.0,1.0,86,0.00,,,0.00,Wunderground v.1.15,2013-05-04 13:24:00,
2013-05-04 09:29:00,74.8,70.0,29.75,ESE,113,1.0,1.0,85,0.00,,,0.00,Wunderground v.1.15,2013-05-04 13:29:00,
2013-05-04 09:34:00,75.1,69.6,29.75,North,350,1.0,5.0,83,0.00,,,0.00,Wunderground v.1.15,2013-05-04 13:34:00,
2013-05-04 09:39:00,75.8,69.9,29.75,East,94,1.0,5.0,82,0.00,,,0.00,Wunderground v.1.15,2013-05-04 13:39:00,
2013-05-04 09:44:00,76.5,70.2,29.75,NNW,347,1.0,3.0,81,0.00,,,0.00,Wunderground v.1.15,2013-05-04 13:44:00,
2013-05-04 09:49:00,77.3,70.6,29.75,SSW,198,2.0,3.0,80,0.00,,,0.00,Wunderground v.1.15,2013-05-04 13:49:00,
2013-05-04 09:54:00,77.4,70.4,29.75,South,173,0.0,2.0,79,0.00,,,0.00,Wunderground v.1.15,2013-05-04 13:54:00,
2013-05-04 09:59:00,77.4,70.0,29.75,SE,127,1.0,5.0,78,0.00,,,0.00,Wunderground v.1.15,2013-05-04 13:59:00,
2013-05-04 10:04:00,78.6,71.5,29.75,ESE,105,0.0,2.0,79,0.00,,,0.00,Wunderground v.1.15,2013-05-04 14:04:00,
2013-05-04 10:09:00,79.3,71.1,29.75,NE,53,0.0,2.0,76,0.00,,,0.00,Wunderground v.1.15,2013-05-04 14:09:00,
2013-05-04 10:14:00,79.4,71.2,29.75,ENE,59,0.0,3.0,76,0.00,,,0.00,Wunderground v.1.15,2013-05-04 14:14:00,
2013-05-04 10:19:00,79.3,69.9,29.75,NNE,13,0.0,8.0,73,0.00,,,0.00,Wunderground v.1.15,2013-05-04 14:19:00,
2013-05-04 10:24:00,79.3,70.3,29.75,East,79,1.0,1.0,74,0.00,,,0.00,Wunderground v.1.15,2013-05-04 14:24:00,
2013-05-04 10:29:00,79.4,70.8,29.76,NE,47,3.0,4.0,75,0.00,,,0.00,Wunderground v.1.15,2013-05-04 14:29:00,
2013-05-04 10:34:00,79.2,70.2,29.75,NE,45,2.0,7.0,74,0.00,,,0.00,Wunderground v.1.15,2013-05-04 14:34:00,
2013-05-04 10:39:00,80.0,71.4,29.75,NE,49,2.0,7.0,75,0.00,,,0.00,Wunderground v.1.15,2013-05-04 14:39:00,
2013-05-04 10:44:00,80.5,70.6,29.76,WSW,255,0.0,3.0,72,0.00,,,0.00,Wunderground v.1.15,2013-05-04 14:44:00,
2013-05-04 10:50:00,81.0,70.7,29.76,NE,55,0.0,3.0,71,0.00,,,0.00,Wunderground v.1.15,2013-05-04 14:50:00,
2013-05-04 10:55:00,81.7,71.4,29.75,WNW,288,0.0,1.0,71,0.00,,,0.00,Wunderground v.1.15,2013-05-04 14:55:00,
2013-05-04 11:00:00,81.8,71.1,29.76,East,79,0.0,2.0,70,0.00,,,0.00,Wunderground v.1.15,2013-05-04 15:00:00,
2013-05-04 11:05:00,81.4,71.1,29.76,ENE,68,1.0,4.0,71,0.00,,,0.00,Wunderground v.1.15,2013-05-04 15:05:00,
2013-05-04 11:10:00,81.4,71.1,29.76,East,80,1.0,6.0,71,0.00,,,0.00,Wunderground v.1.15,2013-05-04 15:10:00,
2013-05-04 11:15:00,81.6,71.3,29.76,NE,46,2.0,3.0,71,0.00,,,0.00,Wunderground v.1.15,2013-05-04 15:15:00,
2013-05-04 11:20:00,82.0,72.5,29.76,ENE,60,1.0,4.0,73,0.00,,,0.00,Wunderground v.1.15,2013-05-04 15:20:00,
2013-05-04 11:25:00,82.0,70.8,29.76,North,1,2.0,5.0,69,0.00,,,0.00,Wunderground v.1.15,2013-05-04 15:25:00,
2013-05-04 11:30:00,82.0,71.2,29.76,East,86,1.0,5.0,70,0.00,,,0.00,Wunderground v.1.15,2013-05-04 15:30:00,
2013-05-04 11:35:00,82.0,72.5,29.76,ENE,62,0.0,3.0,73,0.00,,,0.00,Wunderground v.1.15,2013-05-04 15:35:00,
2013-05-04 11:40:00,82.3,70.7,29.77,SE,138,1.0,4.0,68,0.00,,,0.00,Wunderground v.1.15,2013-05-04 15:40:00,
2013-05-04 11:45:00,82.3,71.5,29.77,West,272,1.0,2.0,70,0.00,,,0.00,Wunderground v.1.15,2013-05-04 15:45:00,
2013-05-04 11:50:00,82.8,71.2,29.77,WNW,291,0.0,2.0,68,0.00,,,0.00,Wunderground v.1.15,2013-05-04 15:50:00,
2013-05-04 11:55:00,82.3,69.8,29.77,West,268,1.0,6.0,66,0.00,,,0.00,Wunderground v.1.15,2013-05-04 15:55:00,
2013-05-04 12:00:00,81.1,71.2,29.77,NE,37,0.0,6.0,72,0.00,,,0.00,Wunderground v.1.15,2013-05-04 16:00:00,
2013-05-04 12:05:00,81.6,71.7,29.76,NNE,29,1.0,5.0,72,0.00,,,0.00,Wunderground v.1.15,2013-05-04 16:05:00,
2013-05-04 12:10:00,81.3,70.6,29.77,ESE,112,1.0,5.0,70,0.00,,,0.00,Wunderground v.1.15,2013-05-04 16:10:00,
2013-05-04 12:15:00,81.1,71.6,29.77,ESE,116,1.0,5.0,73,0.00,,,0.00,Wunderground v.1.15,2013-05-04 16:15:00,
2013-05-04 12:20:00,81.2,72.5,29.76,NE,51,6.0,6.0,75,0.00,,,0.00,Wunderground v.1.15,2013-05-04 16:20:00,
2013-05-04 12:25:00,81.8,71.5,29.76,SSW,195,3.0,3.0,71,0.00,,,0.00,Wunderground v.1.15,2013-05-04 16:25:00,
2013-05-04 12:30:00,81.3,71.4,29.76,East,86,1.0,8.0,72,0.00,,,0.00,Wunderground v.1.15,2013-05-04 16:30:00,
2013-05-04 12:35:00,81.0,70.7,29.76,SE,129,1.0,3.0,71,0.00,,,0.00,Wunderground v.1.15,2013-05-04 16:35:00,
2013-05-04 12:40:00,81.1,73.2,29.76,NNE,20,0.0,6.0,77,0.00,,,0.00,Wunderground v.1.15,2013-05-04 16:40:00,
2013-05-04 12:45:00,81.4,72.3,29.76,WSW,248,1.0,6.0,74,0.00,,,0.00,Wunderground v.1.15,2013-05-04 16:45:00,
2013-05-04 12:50:00,81.4,71.1,29.76,SSE,149,2.0,6.0,71,0.00,,,0.00,Wunderground v.1.15,2013-05-04 16:50:00,
2013-05-04 12:55:00,81.7,71.4,29.75,NE,45,3.0,5.0,71,0.00,,,0.00,Wunderground v.1.15,2013-05-04 16:55:00,
2013-05-04 13:00:00,81.1,72.4,29.75,North,359,1.0,9.0,75,0.00,,,0.00,Wunderground v.1.15,2013-05-04 17:00:00,
2013-05-04 13:05:00,81.3,71.8,29.75,ENE,58,4.0,7.0,73,0.00,,,0.00,Wunderground v.1.15,2013-05-04 17:05:00,
2013-05-04 13:10:00,81.2,72.1,29.75,SW,230,1.0,7.0,74,0.00,,,0.00,Wunderground v.1.15,2013-05-04 17:10:00,
2013-05-04 13:15:00,82.3,72.4,29.75,NE,34,0.0,6.0,72,0.00,,,0.00,Wunderground v.1.15,2013-05-04 17:15:00,
2013-05-04 13:20:00,82.5,73.4,29.75,ENE,65,2.0,6.0,74,0.00,,,0.00,Wunderground v.1.15,2013-05-04 17:20:00,
2013-05-04 13:25:00,82.5,72.6,29.75,SE,133,0.0,4.0,72,0.00,,,0.00,Wunderground v.1.15,2013-05-04 17:25:00,
2013-05-04 13:30:00,82.6,72.7,29.75,ENE,70,1.0,5.0,72,0.00,,,0.00,Wunderground v.1.15,2013-05-04 17:30:00,
2013-05-04 13:35:00,83.2,72.4,29.75,SSE,158,2.0,2.0,70,0.00,,,0.00,Wunderground v.1.15,2013-05-04 17:35:00,
2013-05-04 13:40:00,82.8,72.4,29.75,North,352,0.0,3.0,71,0.00,,,0.00,Wunderground v.1.15,2013-05-04 17:40:00,
2013-05-04 13:45:00,83.1,73.1,29.75,West,281,1.0,4.0,72,0.00,,,0.00,Wunderground v.1.15,2013-05-04 17:45:00,
2013-05-04 13:50:00,83.0,70.9,29.75,ENE,60,1.0,6.0,67,0.00,,,0.00,Wunderground v.1.15,2013-05-04 17:50:00,
2013-05-04 13:55:00,83.2,71.5,29.75,ENE,65,3.0,4.0,68,0.00,,,0.00,Wunderground v.1.15,2013-05-04 17:55:00,
2013-05-04 14:00:00,82.9,71.7,29.75,SSE,159,0.0,4.0,69,0.00,,,0.00,Wunderground v.1.15,2013-05-04 18:00:00,
2013-05-04 14:05:00,82.4,71.2,29.75,NNW,339,0.0,3.0,69,0.00,,,0.00,Wunderground v.1.15,2013-05-04 18:05:00,
2013-05-04 14:10:00,81.4,70.7,29.75,ENE,72,0.0,3.0,70,0.00,,,0.00,Wunderground v.1.15,2013-05-04 18:10:00,
2013-05-04 14:15:00,80.7,71.2,29.75,NW,305,0.0,4.0,73,0.00,,,0.00,Wunderground v.1.15,2013-05-04 18:15:00,
2013-05-04 14:20:00,79.2,70.2,29.75,ESE,123,1.0,4.0,74,0.00,,,0.00,Wunderground v.1.15,2013-05-04 18:20:00,
2013-05-04 14:25:00,78.0,69.8,29.75,NE,39,2.0,4.0,76,0.00,,,0.00,Wunderground v.1.15,2013-05-04 18:25:00,
2013-05-04 14:30:00,77.7,70.3,29.75,SSE,147,0.0,4.0,78,0.00,,,0.00,Wunderground v.1.15,2013-05-04 18:30:00,
2013-05-04 14:35:00,77.7,70.3,29.75,SSW,213,1.0,4.0,78,0.00,,,0.00,Wunderground v.1.15,2013-05-04 18:35:00,
2013-05-04 14:40:00,78.1,71.4,29.75,SE,138,3.0,5.0,80,0.00,,,0.00,Wunderground v.1.15,2013-05-04 18:40:00,
2013-05-04 14:45:00,78.1,71.4,29.75,East,98,0.0,4.0,80,0.00,,,0.00,Wunderground v.1.15,2013-05-04 18:45:00,
2013-05-04 14:50:00,77.8,71.5,29.75,West,260,1.0,7.0,81,0.00,,,0.00,Wunderground v.1.15,2013-05-04 18:50:00,
2013-05-04 14:55:00,78.3,71.2,29.75,ENE,75,0.0,7.0,79,0.00,,,0.00,Wunderground v.1.15,2013-05-04 18:55:00,
2013-05-04 15:00:00,78.0,70.2,29.75,NE,41,3.0,7.0,77,0.00,,,0.00,Wunderground v.1.15,2013-05-04 19:00:00,
2013-05-04 15:05:00,77.8,70.8,29.74,NE,46,2.0,4.0,79,0.00,,,0.00,Wunderground v.1.15,2013-05-04 19:05:00,
2013-05-04 15:10:00,77.9,70.5,29.74,NNE,24,0.0,4.0,78,0.00,,,0.00,Wunderground v.1.15,2013-05-04 19:10:00,
2013-05-04 15:15:00,78.2,70.4,29.74,NE,40,2.0,4.0,77,0.00,,,0.00,Wunderground v.1.15,2013-05-04 19:15:00,
2013-05-04 15:20:00,78.5,69.9,29.74,NW,306,2.0,6.0,75,0.00,,,0.00,Wunderground v.1.15,2013-05-04 19:20:00,
2013-05-04 15:25:00,78.3,70.1,29.74,WSW,257,2.0,5.0,76,0.00,,,0.00,Wunderground v.1.15,2013-05-04 19:25:00,
2013-05-04 15:30:00,78.1,69.1,29.74,SSW,198,5.0,7.0,74,0.00,,,0.00,Wunderground v.1.15,2013-05-04 19:30:00,
2013-05-04 15:35:00,77.7,69.1,29.74,NE,56,4.0,5.0,75,0.00,,,0.00,Wunderground v.1.15,2013-05-04 19:35:00,
2013-05-04 15:40:00,77.2,69.8,29.74,SSE,148,1.0,6.0,78,0.00,,,0.00,Wunderground v.1.15,2013-05-04 19:40:00,
2013-05-04 15:45:00,76.3,69.7,29.74,ENE,60,1.0,4.0,80,0.00,,,0.00,Wunderground v.1.15,2013-05-04 19:45:00,
2013-05-04 15:50:00,75.7,69.8,29.74,SE,134,1.0,6.0,82,0.00,,,0.00,Wunderground v.1.15,2013-05-04 19:50:00,
2013-05-04 15:55:00,75.7,69.8,29.73,WNW,291,1.0,7.0,82,0.00,,,0.00,Wunderground v.1.15,2013-05-04 19:55:00,
2013-05-04 16:00:00,76.5,70.9,29.73,ESE,105,0.0,7.0,83,0.00,,,0.00,Wunderground v.1.15,2013-05-04 20:00:00,
2013-05-04 16:05:00,77.7,71.0,29.73,WNW,285,1.0,3.0,80,0.00,,,0.00,Wunderground v.1.15,2013-05-04 20:05:00,
2013-05-04 16:10:00,78.4,71.3,29.73,NE,52,1.0,10.0,79,0.00,,,0.00,Wunderground v.1.15,2013-05-04 20:10:00,
2013-05-04 16:15:00,78.7,71.6,29.73,ESE,102,3.0,6.0,79,0.00,,,0.00,Wunderground v.1.15,2013-05-04 20:15:00,
2013-05-04 16:20:00,78.8,71.7,29.73,SSW,196,1.0,7.0,79,0.00,,,0.00,Wunderground v.1.15,2013-05-04 20:20:00,
2013-05-04 16:25:00,79.3,71.1,29.73,SSE,168,2.0,4.0,76,0.00,,,0.00,Wunderground v.1.15,2013-05-04 20:25:00,
2013-05-04 16:30:00,79.2,71.4,29.73,WSW,247,0.0,8.0,77,0.00,,,0.00,Wunderground v.1.15,2013-05-04 20:30:00,
2013-05-04 16:35:00,79.9,72.8,29.73,NNW,338,1.0,3.0,79,0.00,,,0.00,Wunderground v.1.15,2013-05-04 20:35:00,
2013-05-04 16:40:00,80.5,72.2,29.73,SE,127,1.0,3.0,76,0.00,,,0.00,Wunderground v.1.15,2013-05-04 20:40:00,
2013-05-04 16:45:00,79.6,70.6,29.73,NE,34,1.0,6.0,74,0.00,,,0.00,Wunderground v.1.15,2013-05-04 20:45:00,
2013-05-04 16:50:00,79.4,70.8,29.73,SE,144,1.0,6.0,75,0.00,,,0.00,Wunderground v.1.15,2013-05-04 20:50:00,
2013-05-04 16:55:00,79.1,71.3,29.73,ENE,74,0.0,4.0,77,0.00,,,0.00,Wunderground v.1.15,2013-05-04 20:55:00,
2013-05-04 17:00:00,79.1,70.5,29.73,SSE,167,2.0,4.0,75,0.00,,,0.00,Wunderground v.1.15,2013-05-04 21:00:00,
2013-05-04 17:05:00,77.9,70.1,29.73,SE,130,3.0,5.0,77,0.00,,,0.00,Wunderground v.1.15,2013-05-04 21:05:00,
2013-05-04 17:10:00,77.1,70.5,29.73,SE,137,0.0,5.0,80,0.00,,,0.00,Wunderground v.1.15,2013-05-04 21:10:00,
2013-05-04 17:15:00,77.3,71.4,29.73,SE,128,0.0,2.0,82,0.00,,,0.00,Wunderground v.1.15,2013-05-04 21:15:00,
2013-05-04 17:20:00,77.3,70.3,29.73,East,101,0.0,5.0,79,0.00,,,0.00,Wunderground v.1.15,2013-05-04 21:20:00,
2013-05-04 17:25:00,77.3,70.6,29.72,NNW,328,1.0,4.0,80,0.00,,,0.00,Wunderground v.1.15,2013-05-04 21:25:00,
2013-05-04 17:30:00,77.1,70.5,29.72,West,271,0.0,4.0,80,0.00,,,0.00,Wunderground v.1.15,2013-05-04 21:30:00,
2013-05-04 17:35:00,76.9,70.6,29.72,ENE,73,0.0,1.0,81,0.00,,,0.00,Wunderground v.1.15,2013-05-04 21:35:00,
2013-05-04 17:40:00,76.7,70.4,29.73,ENE,64,0.0,3.0,81,0.00,,,0.00,Wunderground v.1.15,2013-05-04 21:40:00,
2013-05-04 17:45:00,76.4,70.1,29.73,East,85,1.0,2.0,81,0.00,,,0.00,Wunderground v.1.15,2013-05-04 21:45:00,
2013-05-04 17:50:00,76.1,69.8,29.73,NNE,28,0.0,2.0,81,0.00,,,0.00,Wunderground v.1.15,2013-05-04 21:50:00,
2013-05-04 17:55:00,76.1,70.2,29.73,NE,53,0.0,2.0,82,0.00,,,0.00,Wunderground v.1.15,2013-05-04 21:55:00,
2013-05-04 18:00:00,76.1,70.2,29.73,WSW,250,0.0,2.0,82,0.00,,,0.00,Wunderground v.1.15,2013-05-04 22:00:00,
2013-05-04 18:05:00,75.9,70.4,29.72,NE,51,0.0,4.0,83,0.00,,,0.00,Wunderground v.1.15,2013-05-04 22:05:00,
2013-05-04 18:10:00,76.1,70.2,29.72,SE,125,0.0,4.0,82,0.00,,,0.00,Wunderground v.1.15,2013-05-04 22:10:00,
2013-05-04 18:15:00,76.1,69.5,29.72,ENE,58,1.0,2.0,80,0.00,,,0.00,Wunderground v.1.15,2013-05-04 22:15:00,
2013-05-04 18:20:00,75.9,70.0,29.73,NE,56,2.0,4.0,82,0.00,,,0.00,Wunderground v.1.15,2013-05-04 22:20:00,
2013-05-04 18:25:00,75.7,69.5,29.73,NE,47,2.0,2.0,81,0.00,,,0.00,Wunderground v.1.15,2013-05-04 22:25:00,
2013-05-04 18:30:00,75.5,69.6,29.73,SSE,153,0.0,5.0,82,0.00,,,0.00,Wunderground v.1.15,2013-05-04 22:30:00,
2013-05-04 18:35:00,75.4,69.5,29.73,NNE,23,1.0,3.0,82,0.00,,,0.00,Wunderground v.1.15,2013-05-04 22:35:00,
2013-05-04 18:40:00,75.3,69.4,29.73,NE,47,2.0,5.0,82,0.00,,,0.00,Wunderground v.1.15,2013-05-04 22:40:00,
2013-05-04 18:45:00,75.1,69.2,29.73,NE,44,2.0,5.0,82,0.00,,,0.00,Wunderground v.1.15,2013-05-04 22:45:00,
2013-05-04 18:50:00,74.9,67.9,29.73,NE,37,2.0,8.0,79,0.00,,,0.00,Wunderground v.1.15,2013-05-04 22:50:00,
2013-05-04 18:55:00,74.6,68.4,29.73,NE,48,0.0,5.0,81,0.00,,,0.00,Wunderground v.1.15,2013-05-04 22:55:00,
2013-05-04 19:00:00,74.5,68.3,29.73,NE,44,0.0,5.0,81,0.00,,,0.00,Wunderground v.1.15,2013-05-04 23:00:00,
2013-05-04 19:05:00,74.3,68.1,29.73,ENE,58,2.0,4.0,81,0.00,,,0.00,Wunderground v.1.15,2013-05-04 23:05:00,
2013-05-04 19:10:00,74.2,68.0,29.73,NE,51,0.0,4.0,81,0.00,,,0.00,Wunderground v.1.15,2013-05-04 23:10:00,
2013-05-04 19:15:00,74.2,68.3,29.74,NE,51,0.0,2.0,82,0.00,,,0.00,Wunderground v.1.15,2013-05-04 23:15:00,
2013-05-04 19:20:00,74.1,68.6,29.74,ENE,73,0.0,6.0,83,0.00,,,0.00,Wunderground v.1.15,2013-05-04 23:20:00,
2013-05-04 19:25:00,74.0,68.5,29.74,NE,49,0.0,1.0,83,0.00,,,0.00,Wunderground v.1.15,2013-05-04 23:25:00,
2013-05-04 19:30:00,73.9,68.8,29.74,SE,136,0.0,4.0,84,0.00,,,0.00,Wunderground v.1.15,2013-05-04 23:30:00,
2013-05-04 19:35:00,73.9,68.8,29.75,NNE,33,0.0,2.0,84,0.00,,,0.00,Wunderground v.1.15,2013-05-04 23:35:00,
2013-05-04 19:40:00,73.8,68.7,29.75,North,355,0.0,2.0,84,0.00,,,0.00,Wunderground v.1.15,2013-05-04 23:40:00,
2013-05-04 19:45:00,73.7,68.2,29.75,ESE,117,1.0,4.0,83,0.00,,,0.00,Wunderground v.1.15,2013-05-04 23:45:00,
2013-05-04 19:50:00,73.6,68.1,29.75,East,80,0.0,4.0,83,0.00,,,0.00,Wunderground v.1.15,2013-05-04 23:50:00,
2013-05-04 19:55:00,73.6,68.1,29.75,NNE,18,2.0,2.0,83,0.00,,,0.00,Wunderground v.1.15,2013-05-04 23:55:00,
2013-05-04 20:00:00,73.5,68.0,29.75,WSW,254,1.0,4.0,83,0.00,,,0.00,Wunderground v.1.15,2013-05-05 00:00:00,
2013-05-04 20:05:00,73.5,68.0,29.75,NNE,25,0.0,1.0,83,0.00,,,0.00,Wunderground v.1.15,2013-05-05 00:05:00,
2013-05-04 20:10:00,73.5,68.0,29.75,NE,39,1.0,2.0,83,0.00,,,0.00,Wunderground v.1.15,2013-05-05 00:10:00,
2013-05-04 20:15:00,73.4,67.6,29.75,ENE,68,0.0,3.0,82,0.00,,,0.00,Wunderground v.1.15,2013-05-05 00:15:00,
2013-05-04 20:20:00,73.2,67.4,29.75,West,262,1.0,4.0,82,0.00,,,0.00,Wunderground v.1.15,2013-05-05 00:20:00,
2013-05-04 20:25:00,73.1,67.6,29.75,ESE,105,1.0,3.0,83,0.00,,,0.00,Wunderground v.1.15,2013-05-05 00:25:00,
2013-05-04 20:30:00,73.0,67.9,29.76,ESE,113,1.0,3.0,84,0.00,,,0.00,Wunderground v.1.15,2013-05-05 00:30:00,
2013-05-04 20:35:00,72.9,67.4,29.76,SW,223,1.0,2.0,83,0.00,,,0.00,Wunderground v.1.15,2013-05-05 00:35:00,
2013-05-04 20:40:00,72.9,67.4,29.76,ENE,57,2.0,4.0,83,0.00,,,0.00,Wunderground v.1.15,2013-05-05 00:40:00,
2013-05-04 20:45:00,72.9,67.4,29.76,SE,146,0.0,3.0,83,0.00,,,0.00,Wunderground v.1.15,2013-05-05 00:45:00,
2013-05-04 20:50:00,72.9,67.8,29.76,ENE,71,1.0,5.0,84,0.00,,,0.00,Wunderground v.1.15,2013-05-05 00:50:00,
2013-05-04 20:55:00,72.9,67.4,29.76,NE,36,0.0,5.0,83,0.00,,,0.00,Wunderground v.1.15,2013-05-05 00:55:00,
2013-05-04 21:00:00,72.9,67.4,29.77,NW,304,0.0,5.0,83,0.00,,,0.00,Wunderground v.1.15,2013-05-05 01:00:00,
2013-05-04 21:05:00,72.8,67.7,29.77,ENE,58,4.0,5.0,84,0.00,,,0.00,Wunderground v.1.15,2013-05-05 01:05:00,
2013-05-04 21:10:00,72.7,67.6,29.77,SE,141,1.0,7.0,84,0.00,,,0.00,Wunderground v.1.15,2013-05-05 01:10:00,
2013-05-04 21:15:00,72.7,67.6,29.77,South,191,2.0,3.0,84,0.00,,,0.00,Wunderground v.1.15,2013-05-05 01:15:00,
2013-05-04 21:20:00,72.7,67.6,29.77,NE,53,0.0,3.0,84,0.00,,,0.00,Wunderground v.1.15,2013-05-05 01:20:00,
2013-05-04 21:25:00,72.5,67.0,29.77,ENE,63,0.0,3.0,83,0.00,,,0.00,Wunderground v.1.15,2013-05-05 01:25:00,
2013-05-04 21:30:00,72.2,66.7,29.78,NE,42,0.0,4.0,83,0.00,,,0.00,Wunderground v.1.15,2013-05-05 01:30:00,
2013-05-04 21:35:00,71.9,66.5,29.78,West,266,0.0,4.0,83,0.00,,,0.00,Wunderground v.1.15,2013-05-05 01:35:00,
2013-05-04 21:40:00,71.6,66.2,29.78,WNW,290,0.0,4.0,83,0.00,,,0.00,Wunderground v.1.15,2013-05-05 01:40:00,
2013-05-04 21:45:00,71.4,66.3,29.78,ESE,114,0.0,3.0,84,0.00,,,0.00,Wunderground v.1.15,2013-05-05 01:45:00,
2013-05-04 21:50:00,71.3,66.9,29.79,NE,49,0.0,3.0,86,0.00,,,0.00,Wunderground v.1.15,2013-05-05 01:50:00,
2013-05-04 21:55:00,71.3,67.2,29.79,WSW,257,1.0,2.0,87,0.00,,,0.00,Wunderground v.1.15,2013-05-05 01:55:00,
2013-05-04 22:00:00,71.5,67.8,29.80,SE,129,0.0,3.0,88,0.00,,,0.00,Wunderground v.1.15,2013-05-05 02:00:00,
2013-05-04 22:05:00,71.6,68.2,29.80,WSW,257,1.0,3.0,89,0.00,,,0.00,Wunderground v.1.15,2013-05-05 02:05:00,
2013-05-04 22:10:00,71.7,68.0,29.80,NNW,327,0.0,3.0,88,0.00,,,0.00,Wunderground v.1.15,2013-05-05 02:10:00,
2013-05-04 22:15:00,71.7,68.0,29.80,WNW,301,0.0,1.0,88,0.00,,,0.00,Wunderground v.1.15,2013-05-05 02:15:00,
2013-05-04 22:20:00,71.7,68.0,29.80,ESE,122,1.0,6.0,88,0.00,,,0.00,Wunderground v.1.15,2013-05-05 02:20:00,
2013-05-04 22:25:00,71.6,68.2,29.81,NNW,348,1.0,2.0,89,0.00,,,0.00,Wunderground v.1.15,2013-05-05 02:25:00,
2013-05-04 22:30:00,71.5,67.8,29.81,North,4,1.0,4.0,88,0.00,,,0.00,Wunderground v.1.15,2013-05-05 02:30:00,
2013-05-04 22:35:00,71.4,67.7,29.81,SW,230,0.0,3.0,88,0.00,,,0.00,Wunderground v.1.15,2013-05-05 02:35:00,
2013-05-04 22:40:00,71.4,67.7,29.81,ESE,122,1.0,3.0,88,0.00,,,0.00,Wunderground v.1.15,2013-05-05 02:40:00,
2013-05-04 22:45:00,71.4,67.7,29.81,ESE,104,0.0,3.0,88,0.00,,,0.00,Wunderground v.1.15,2013-05-05 02:45:00,
2013-05-04 22:50:00,71.3,67.2,29.81,SE,142,0.0,3.0,87,0.00,,,0.00,Wunderground v.1.15,2013-05-05 02:50:00,
2013-05-04 22:55:00,71.3,67.2,29.81,East,87,2.0,3.0,87,0.00,,,0.00,Wunderground v.1.15,2013-05-05 02:55:00,
2013-05-04 23:00:00,71.2,67.1,29.81,SW,234,1.0,3.0,87,0.00,,,0.00,Wunderground v.1.15,2013-05-05 03:00:00,
2013-05-04 23:05:00,71.1,66.7,29.82,WNW,283,1.0,3.0,86,0.00,,,0.00,Wunderground v.1.15,2013-05-05 03:05:00,
2013-05-04 23:10:00,70.9,66.8,29.82,SSE,154,0.0,3.0,87,0.00,,,0.00,Wunderground v.1.15,2013-05-05 03:10:00,
2013-05-04 23:15:00,70.8,66.7,29.82,SSE,162,0.0,3.0,87,0.00,,,0.00,Wunderground v.1.15,2013-05-05 03:15:00,
2013-05-04 23:20:00,70.7,66.6,29.82,NW,310,0.0,3.0,87,0.00,,,0.00,Wunderground v.1.15,2013-05-05 03:20:00,
2013-05-04 23:25:00,70.6,66.9,29.82,WNW,285,0.0,1.0,88,0.00,,,0.00,Wunderground v.1.15,2013-05-05 03:25:00,
2013-05-04 23:30:00,70.6,67.2,29.82,East,89,0.0,2.0,89,0.00,,,0.00,Wunderground v.1.15,2013-05-05 03:30:00,
2013-05-04 23:35:00,70.5,67.1,29.82,SSE,151,0.0,3.0,89,0.00,,,0.00,Wunderground v.1.15,2013-05-05 03:35:00,
2013-05-04 23:40:00,70.3,66.9,29.82,South,180,0.0,4.0,89,0.00,,,0.00,Wunderground v.1.15,2013-05-05 03:40:00,
2013-05-04 23:45:00,70.2,67.1,29.82,ENE,65,1.0,1.0,90,0.00,,,0.00,Wunderground v.1.15,2013-05-05 03:45:00,
2013-05-04 23:50:00,70.0,66.9,29.82,SE,129,1.0,4.0,90,0.00,,,0.00,Wunderground v.1.15,2013-05-05 03:50:00,
2013-05-04 23:55:00,69.7,66.3,29.82,East,97,2.0,4.0,89,0.00,,,0.00,Wunderground v.1.15,2013-05-05 03:55:00,